createdAt,value
2024-04-12T00:01:49.724Z,12.20
2024-04-12T00:04:18.350Z,12.30
2024-04-12T00:06:50.930Z,12.20
2024-04-12T00:09:22.169Z,12.20
2024-04-12T00:11:54.614Z,12.10
2024-04-12T00:14:23.297Z,12.10
2024-04-12T00:16:56.350Z,12.10
2024-04-12T00:19:24.728Z,12.00
2024-04-12T00:21:57.562Z,11.90
2024-04-12T00:24:25.978Z,11.90
2024-04-12T00:26:57.758Z,11.90
2024-04-12T00:29:32.282Z,11.90
2024-04-12T00:32:15.441Z,11.80
2024-04-12T00:34:49.792Z,11.70
2024-04-12T00:37:22.751Z,11.80
2024-04-12T00:39:52.086Z,11.90
2024-04-12T00:42:28.295Z,11.80
2024-04-12T00:44:59.836Z,11.80
2024-04-12T00:47:33.901Z,11.70
2024-04-12T00:50:06.276Z,11.80
2024-04-12T00:52:36.690Z,11.80
2024-04-12T00:55:09.207Z,11.70
2024-04-12T00:57:38.566Z,11.60
2024-04-12T01:00:11.048Z,11.60
2024-04-12T01:02:43.463Z,11.60
2024-04-12T01:05:18.505Z,11.60
2024-04-12T01:07:51.113Z,11.60
2024-04-12T01:10:26.649Z,11.50
2024-04-12T01:12:56.743Z,11.60
2024-04-12T01:15:30.730Z,11.60
2024-04-12T01:18:02.898Z,11.50
2024-04-12T01:20:34.181Z,11.40
2024-04-12T01:23:01.539Z,11.40
2024-04-12T01:25:35.068Z,11.40
2024-04-12T01:28:04.351Z,11.30
2024-04-12T01:30:36.352Z,11.30
2024-04-12T01:33:07.953Z,11.40
2024-04-12T01:35:38.052Z,11.30
2024-04-12T01:38:19.383Z,11.30
2024-04-12T01:40:59.704Z,11.30
2024-04-12T01:43:29.469Z,11.30
2024-04-12T01:45:59.790Z,11.30
2024-04-12T01:48:30.179Z,11.20
2024-04-12T01:51:03.435Z,11.20
2024-04-12T01:53:38.304Z,11.20
2024-04-12T01:56:15.114Z,11.10
2024-04-12T01:58:43.647Z,11.10
2024-04-12T02:01:17.417Z,11.10
2024-04-12T02:03:45.182Z,11.00
2024-04-12T02:06:17.686Z,11.00
2024-04-12T02:08:45.986Z,11.00
2024-04-12T02:11:24.598Z,11.00
2024-04-12T02:13:53.954Z,10.90
2024-04-12T02:16:23.891Z,11.00
2024-04-12T02:18:51.269Z,11.00
2024-04-12T02:21:21.344Z,11.00
2024-04-12T02:23:50.262Z,10.90
2024-04-12T02:26:24.535Z,10.90
2024-04-12T02:28:53.246Z,10.90
2024-04-12T02:31:23.868Z,10.80
2024-04-12T02:33:51.356Z,10.80
2024-04-12T02:36:22.624Z,10.90
2024-04-12T02:38:51.948Z,10.90
2024-04-12T02:41:24.881Z,10.80
2024-04-12T02:43:53.631Z,10.80
2024-04-12T02:46:24.455Z,10.80
2024-04-12T02:48:52.951Z,10.80
2024-04-12T02:51:24.636Z,10.70
2024-04-12T02:53:53.321Z,10.70
2024-04-12T02:56:26.544Z,10.60
2024-04-12T02:58:55.046Z,10.70
2024-04-12T03:01:26.321Z,10.70
2024-04-12T03:03:57.071Z,10.70
2024-04-12T03:06:29.238Z,10.70
2024-04-12T03:09:02.306Z,10.50
2024-04-12T03:11:39.256Z,10.50
2024-04-12T03:14:10.758Z,10.60
2024-04-12T03:16:43.051Z,10.60
2024-04-12T03:19:12.434Z,10.50
2024-04-12T03:21:44.423Z,10.50
2024-04-12T03:24:12.882Z,10.50
2024-04-12T03:26:46.397Z,10.50
2024-04-12T03:29:13.897Z,10.40
2024-04-12T03:31:48.198Z,10.50
2024-04-12T03:34:16.012Z,10.40
2024-04-12T03:36:58.718Z,10.40
2024-04-12T03:39:26.356Z,10.30
2024-04-12T03:42:06.084Z,10.30
2024-04-12T03:44:36.105Z,10.30
2024-04-12T03:47:10.354Z,10.40
2024-04-12T03:49:41.331Z,10.30
2024-04-12T03:52:16.031Z,10.30
2024-04-12T03:54:46.997Z,10.30
2024-04-12T03:57:28.122Z,10.30
2024-04-12T03:59:59.086Z,10.20
2024-04-12T04:02:31.236Z,10.20
2024-04-12T04:05:14.628Z,10.30
2024-04-12T04:07:48.038Z,10.30
2024-04-12T04:10:16.685Z,10.30
2024-04-12T04:12:50.607Z,10.30
2024-04-12T04:15:18.365Z,10.30
2024-04-12T04:17:51.519Z,10.20
2024-04-12T04:20:18.968Z,10.20
2024-04-12T04:22:50.669Z,10.10
2024-04-12T04:25:20.609Z,10.10
2024-04-12T04:27:56.225Z,10.10
2024-04-12T04:30:26.710Z,10.20
2024-04-12T04:32:57.160Z,10.10
2024-04-12T04:35:28.495Z,10.10
2024-04-12T04:37:59.463Z,10.20
2024-04-12T04:40:27.175Z,10.20
2024-04-12T04:43:00.523Z,10.20
2024-04-12T04:45:32.953Z,10.20
2024-04-12T04:48:03.062Z,10.20
2024-04-12T04:50:30.436Z,10.10
2024-04-12T04:53:03.942Z,10.20
2024-04-12T04:55:33.356Z,10.10
2024-04-12T04:58:09.970Z,10.20
2024-04-12T05:00:42.759Z,10.20
2024-04-12T05:03:16.805Z,10.10
2024-04-12T05:05:44.436Z,10.10
2024-04-12T05:08:16.186Z,10.10
2024-04-12T05:10:43.548Z,10.20
2024-04-12T05:13:18.749Z,10.10
2024-04-12T05:15:53.435Z,10.10
2024-04-12T05:18:23.601Z,10.20
2024-04-12T05:20:51.026Z,10.20
2024-04-12T05:23:22.169Z,10.30
2024-04-12T05:25:50.869Z,10.20
2024-04-12T05:28:28.256Z,10.20
2024-04-12T05:30:56.404Z,10.30
2024-04-12T05:33:28.783Z,10.30
2024-04-12T05:35:56.289Z,10.20
2024-04-12T05:38:28.070Z,10.20
2024-04-12T05:40:55.848Z,10.30
2024-04-12T05:43:31.290Z,10.30
2024-04-12T05:46:00.239Z,10.30
2024-04-12T05:48:31.555Z,10.40
2024-04-12T05:50:59.817Z,10.40
2024-04-12T05:53:33.147Z,10.40
2024-04-12T05:56:21.105Z,10.40
2024-04-12T05:58:54.533Z,10.50
2024-04-12T06:01:25.568Z,10.60
2024-04-12T06:03:57.460Z,10.70
2024-04-12T06:06:25.624Z,10.90
2024-04-12T06:08:59.756Z,11.00
2024-04-12T06:11:27.340Z,11.10
2024-04-12T06:14:03.052Z,11.20
2024-04-12T06:16:30.596Z,11.30
2024-04-12T06:19:03.787Z,11.30
2024-04-12T06:21:33.096Z,11.40
2024-04-12T06:24:10.419Z,11.60
2024-04-12T06:26:41.752Z,11.70
2024-04-12T06:29:26.209Z,11.90
2024-04-12T06:31:56.979Z,12.10
2024-04-12T06:34:26.912Z,12.30
2024-04-12T06:36:57.469Z,12.40
2024-04-12T06:39:29.757Z,12.60
2024-04-12T06:41:58.768Z,12.80
2024-04-12T06:44:31.917Z,13.00
2024-04-12T06:46:59.878Z,13.20
2024-04-12T06:49:31.181Z,13.30
2024-04-12T06:52:11.040Z,13.50
2024-04-12T06:54:42.750Z,13.70
2024-04-12T06:57:11.163Z,13.80
2024-04-12T06:59:47.809Z,14.00
2024-04-12T07:02:15.717Z,14.10
2024-04-12T07:04:45.921Z,14.20
2024-04-12T07:07:13.741Z,14.30
2024-04-12T07:09:47.369Z,14.30
2024-04-12T07:12:15.093Z,14.50
2024-04-12T07:14:47.779Z,14.60
2024-04-12T07:17:25.058Z,14.80
2024-04-12T07:19:58.530Z,15.10
2024-04-12T07:22:28.272Z,15.30
2024-04-12T07:25:02.571Z,15.50
2024-04-12T07:27:30.284Z,15.80
2024-04-12T07:30:07.517Z,15.90
2024-04-12T07:32:37.540Z,15.90
2024-04-12T07:35:24.304Z,15.90
2024-04-12T07:37:58.601Z,16.00
2024-04-12T07:40:33.928Z,16.20
2024-04-12T07:43:10.559Z,16.20
2024-04-12T07:45:44.306Z,16.30
2024-04-12T07:48:28.802Z,16.40
2024-04-12T07:51:03.101Z,16.50
2024-04-12T07:53:36.251Z,16.60
2024-04-12T07:56:16.354Z,16.60
2024-04-12T07:58:44.758Z,16.60
2024-04-12T08:01:27.257Z,16.60
2024-04-12T08:03:58.337Z,16.60
2024-04-12T08:06:57.301Z,16.70
2024-04-12T08:09:36.162Z,16.70
2024-04-12T08:12:14.710Z,16.70
2024-04-12T08:14:54.689Z,16.70
2024-04-12T08:17:27.134Z,16.80
2024-04-12T08:20:02.164Z,16.80
2024-04-12T08:22:34.589Z,16.90
2024-04-12T08:25:07.950Z,17.00
2024-04-12T08:27:36.390Z,17.00
2024-04-12T08:30:15.659Z,17.00
2024-04-12T08:32:50.497Z,17.10
2024-04-12T08:35:22.632Z,17.20
2024-04-12T08:37:55.091Z,17.10
2024-04-12T08:40:27.368Z,17.10
2024-04-12T08:43:11.072Z,17.20
2024-04-12T08:45:49.195Z,17.20
2024-04-12T08:48:19.355Z,17.20
2024-04-12T08:50:51.826Z,17.20
2024-04-12T08:53:23.421Z,17.30
2024-04-12T08:55:53.570Z,17.40
2024-04-12T08:58:25.397Z,17.50
2024-04-12T09:00:57.736Z,17.40
2024-04-12T09:03:34.186Z,17.40
2024-04-12T09:06:04.358Z,17.50
2024-04-12T09:08:36.631Z,17.50
2024-04-12T09:11:08.968Z,17.60
2024-04-12T09:13:37.884Z,17.70
2024-04-12T09:16:09.364Z,17.80
2024-04-12T09:18:47.099Z,17.70
2024-04-12T09:21:25.887Z,17.80
2024-04-12T09:23:58.139Z,17.90
2024-04-12T09:26:40.937Z,18.00
2024-04-12T09:29:11.141Z,18.00
2024-04-12T09:31:58.794Z,18.00
2024-04-12T09:34:37.961Z,18.10
2024-04-12T09:37:29.993Z,18.20
2024-04-12T09:40:05.328Z,18.20
2024-04-12T09:42:46.962Z,18.30
2024-04-12T09:45:20.719Z,18.30
2024-04-12T09:48:08.278Z,18.30
2024-04-12T09:50:57.818Z,18.40
2024-04-12T09:53:44.400Z,18.50
2024-04-12T09:56:34.276Z,18.50
2024-04-12T09:59:24.226Z,18.50
2024-04-12T10:02:14.172Z,18.50
2024-04-12T10:05:00.879Z,18.50
2024-04-12T10:07:50.688Z,18.60
2024-04-12T10:10:38.694Z,18.70
2024-04-12T10:13:25.160Z,18.70
2024-04-12T10:16:14.232Z,18.70
2024-04-12T10:19:00.257Z,18.70
2024-04-12T10:21:48.573Z,18.80
2024-04-12T10:24:37.605Z,18.90
2024-04-12T10:27:23.897Z,18.90
2024-04-12T10:30:09.927Z,19.00
2024-04-12T10:32:58.836Z,19.00
2024-04-12T10:35:44.798Z,19.00
2024-04-12T10:38:27.214Z,19.10
2024-04-12T10:41:09.543Z,19.20
2024-04-12T10:43:40.654Z,19.10
2024-04-12T10:46:11.853Z,19.20
2024-04-12T10:48:43.460Z,19.20
2024-04-12T10:51:14.613Z,19.20
2024-04-12T10:53:48.024Z,19.30
2024-04-12T10:56:20.549Z,19.30
2024-04-12T10:58:53.639Z,19.40
2024-04-12T11:01:24.177Z,19.40
2024-04-12T11:04:01.100Z,19.40
2024-04-12T11:06:32.977Z,19.40
2024-04-12T11:09:05.721Z,19.40
2024-04-12T11:11:40.067Z,19.40
2024-04-12T11:14:17.504Z,19.50
2024-04-12T11:17:05.281Z,19.40
2024-04-12T11:19:54.940Z,19.50
2024-04-12T11:22:44.599Z,19.50
2024-04-12T11:25:31.938Z,19.60
2024-04-12T11:28:23.768Z,19.60
2024-04-12T11:31:17.138Z,19.60
2024-04-12T11:34:01.071Z,19.70
2024-04-12T11:36:41.490Z,19.80
2024-04-12T11:39:19.151Z,19.80
2024-04-12T11:41:50.722Z,19.80
2024-04-12T11:44:20.937Z,19.80
2024-04-12T11:46:57.334Z,19.80
2024-04-12T11:49:26.964Z,19.80
2024-04-12T11:51:59.594Z,19.80
2024-04-12T11:54:31.100Z,19.90
2024-04-12T11:57:02.324Z,19.90
2024-04-12T11:59:33.044Z,20.00
2024-04-12T12:02:05.577Z,20.00
2024-04-12T12:04:33.888Z,20.00
2024-04-12T12:07:09.391Z,20.00
2024-04-12T12:09:39.118Z,20.00
2024-04-12T12:12:12.456Z,20.00
2024-04-12T12:14:43.544Z,20.10
2024-04-12T12:17:18.065Z,20.10
2024-04-12T12:19:47.822Z,20.10
2024-04-12T12:22:19.724Z,20.10
2024-04-12T12:24:48.657Z,20.10
2024-04-12T12:27:21.374Z,20.10
2024-04-12T12:29:55.339Z,20.20
2024-04-12T12:32:27.718Z,20.20
2024-04-12T12:34:56.214Z,20.20
2024-04-12T12:37:29.948Z,20.10
2024-04-12T12:40:01.339Z,20.20
2024-04-12T12:42:33.156Z,20.20
2024-04-12T12:45:04.775Z,20.30
2024-04-12T12:47:36.962Z,20.30
2024-04-12T12:50:04.861Z,20.30
2024-04-12T12:52:37.244Z,20.30
2024-04-12T12:55:05.476Z,20.30
2024-04-12T12:57:40.392Z,20.30
2024-04-12T13:00:19.887Z,20.40
2024-04-12T13:02:51.954Z,20.40
2024-04-12T13:05:20.113Z,20.40
2024-04-12T13:07:52.732Z,20.40
2024-04-12T13:10:21.508Z,20.50
2024-04-12T13:12:55.133Z,20.50
2024-04-12T13:15:26.185Z,20.50
2024-04-12T13:17:57.474Z,20.50
2024-04-12T13:20:24.872Z,20.60
2024-04-12T13:22:54.734Z,20.60
2024-04-12T13:25:22.622Z,20.60
2024-04-12T13:27:56.744Z,20.60
2024-04-12T13:30:31.480Z,20.70
2024-04-12T13:33:01.596Z,20.70
2024-04-12T13:35:29.707Z,20.70
2024-04-12T13:38:01.156Z,20.70
2024-04-12T13:40:28.499Z,20.80
2024-04-12T13:43:00.952Z,20.80
2024-04-12T13:45:49.636Z,20.80
2024-04-12T13:48:35.840Z,20.80
2024-04-12T13:51:05.988Z,20.80
2024-04-12T13:53:33.686Z,20.80
2024-04-12T13:56:21.433Z,20.80
2024-04-12T13:58:50.516Z,20.80
2024-04-12T14:01:25.624Z,20.90
2024-04-12T14:03:54.129Z,20.90
2024-04-12T14:06:25.313Z,20.90
2024-04-12T14:08:53.875Z,21.00
2024-04-12T14:11:23.957Z,20.90
2024-04-12T14:13:51.546Z,20.90
2024-04-12T14:16:30.411Z,20.90
2024-04-12T14:18:57.782Z,20.90
2024-04-12T14:21:28.102Z,21.00
2024-04-12T14:24:02.186Z,21.00
2024-04-12T14:26:32.465Z,21.00
2024-04-12T14:29:02.837Z,21.00
2024-04-12T14:31:35.401Z,21.00
2024-04-12T14:34:02.881Z,21.00
2024-04-12T14:36:33.023Z,21.00
2024-04-12T14:39:00.259Z,21.10
2024-04-12T14:41:30.353Z,21.10
2024-04-12T14:43:57.573Z,21.10
2024-04-12T14:46:30.436Z,21.10
2024-04-12T14:49:00.327Z,21.00
2024-04-12T14:51:30.752Z,21.00
2024-04-12T14:54:00.027Z,21.10
2024-04-12T14:56:35.629Z,21.10
2024-04-12T14:59:08.479Z,21.10
2024-04-12T15:01:39.295Z,21.10
2024-04-12T15:04:27.983Z,21.10
2024-04-12T15:07:13.467Z,21.10
2024-04-12T15:09:59.320Z,21.10
2024-04-12T15:12:45.214Z,21.10
2024-04-12T15:15:30.760Z,21.10
2024-04-12T15:18:16.337Z,21.10
2024-04-12T15:21:04.609Z,21.10
2024-04-12T15:23:52.242Z,21.10
2024-04-12T15:26:39.252Z,21.10
2024-04-12T15:29:25.224Z,21.10
2024-04-12T15:32:10.752Z,21.10
2024-04-12T15:34:56.464Z,21.10
2024-04-12T15:37:45.062Z,21.00
2024-04-12T15:40:30.617Z,21.10
2024-04-12T15:43:16.538Z,21.00
2024-04-12T15:46:02.220Z,21.10
2024-04-12T15:48:33.870Z,21.00
2024-04-12T15:51:04.615Z,21.10
2024-04-12T15:53:37.335Z,21.10
2024-04-12T15:56:23.824Z,21.10
2024-04-12T15:59:09.486Z,21.10
2024-04-12T16:01:55.058Z,21.10
2024-04-12T16:04:40.591Z,21.10
2024-04-12T16:07:26.168Z,21.00
2024-04-12T16:10:14.297Z,21.00
2024-04-12T16:12:44.147Z,21.00
2024-04-12T16:15:14.100Z,20.90
2024-04-12T16:17:44.436Z,20.90
2024-04-12T16:20:15.313Z,20.90
2024-04-12T16:22:42.506Z,20.90
2024-04-12T16:25:15.497Z,21.00
2024-04-12T16:27:42.805Z,21.00
2024-04-12T16:30:13.728Z,21.00
2024-04-12T16:32:41.522Z,21.00
2024-04-12T16:35:12.638Z,20.90
2024-04-12T16:37:40.607Z,20.90
2024-04-12T16:40:11.669Z,20.90
2024-04-12T16:42:41.576Z,20.90
2024-04-12T16:45:11.931Z,20.90
2024-04-12T16:47:39.367Z,20.90
2024-04-12T16:50:09.643Z,20.90
2024-04-12T16:52:36.983Z,20.80
2024-04-12T16:55:08.231Z,20.70
2024-04-12T16:57:35.447Z,20.70
2024-04-12T17:00:08.869Z,20.70
2024-04-12T17:02:36.195Z,20.60
2024-04-12T17:05:06.426Z,20.60
2024-04-12T17:07:33.624Z,20.60
2024-04-12T17:10:04.866Z,20.60
2024-04-12T17:12:32.135Z,20.50
2024-04-12T17:15:02.109Z,20.50
2024-04-12T17:17:32.188Z,20.40
2024-04-12T17:20:02.177Z,20.40
2024-04-12T17:22:29.405Z,20.40
2024-04-12T17:24:59.375Z,20.40
2024-04-12T17:27:26.801Z,20.30
2024-04-12T17:29:57.223Z,20.30
2024-04-12T17:32:37.039Z,20.20
2024-04-12T17:35:11.565Z,20.10
2024-04-12T17:37:39.199Z,20.10
2024-04-12T17:40:12.787Z,20.10
2024-04-12T17:42:40.317Z,20.10
2024-04-12T17:45:10.815Z,20.00
2024-04-12T17:47:40.830Z,20.00
2024-04-12T17:50:12.331Z,19.90
2024-04-12T17:52:41.233Z,19.90
2024-04-12T17:55:12.815Z,19.80
2024-04-12T17:57:41.957Z,19.70
2024-04-12T18:00:16.201Z,19.70
2024-04-12T18:02:46.197Z,19.70
2024-04-12T18:05:16.187Z,19.60
2024-04-12T18:07:43.639Z,19.50
2024-04-12T18:10:14.028Z,19.50
2024-04-12T18:12:43.404Z,19.40
2024-04-12T18:15:14.543Z,19.40
2024-04-12T18:17:41.848Z,19.30
2024-04-12T18:20:14.345Z,19.30
2024-04-12T18:22:43.113Z,19.20
2024-04-12T18:25:14.120Z,19.10
2024-04-12T18:27:41.432Z,19.00
2024-04-12T18:30:12.747Z,18.90
2024-04-12T18:32:40.259Z,18.80
2024-04-12T18:35:14.997Z,18.80
2024-04-12T18:38:08.992Z,18.80
2024-04-12T18:40:55.101Z,18.80
2024-04-12T18:43:40.863Z,18.70
2024-04-12T18:46:10.990Z,18.70
2024-04-12T18:48:40.975Z,18.60
2024-04-12T18:51:08.320Z,18.60
2024-04-12T18:53:41.106Z,18.50
2024-04-12T18:56:13.131Z,18.40
2024-04-12T18:58:44.551Z,18.40
2024-04-12T19:01:11.772Z,18.30
2024-04-12T19:03:44.542Z,18.30
2024-04-12T19:06:12.116Z,18.30
2024-04-12T19:08:44.802Z,18.30
2024-04-12T19:11:12.433Z,18.30
2024-04-12T19:13:42.618Z,18.30
2024-04-12T19:16:10.359Z,18.20
2024-04-12T19:18:41.918Z,18.20
2024-04-12T19:21:10.090Z,18.10
2024-04-12T19:23:40.983Z,18.10
2024-04-12T19:26:11.991Z,18.10
2024-04-12T19:28:44.312Z,18.00
2024-04-12T19:31:11.584Z,18.00
2024-04-12T19:33:41.514Z,17.90
2024-04-12T19:36:09.469Z,17.80
2024-04-12T19:38:39.566Z,17.70
2024-04-12T19:41:07.794Z,17.70
2024-04-12T19:43:40.846Z,17.60
2024-04-12T19:46:08.069Z,17.50
2024-04-12T19:48:40.521Z,17.60
2024-04-12T19:51:08.175Z,17.40
2024-04-12T19:53:38.330Z,17.50
2024-04-12T19:56:08.016Z,17.50
2024-04-12T19:58:41.198Z,17.50
2024-04-12T20:01:12.108Z,17.40
2024-04-12T20:03:42.902Z,17.30
2024-04-12T20:06:10.470Z,17.30
2024-04-12T20:08:40.442Z,17.30
2024-04-12T20:11:08.928Z,17.20
2024-04-12T20:13:41.902Z,17.10
2024-04-12T20:16:09.758Z,17.20
2024-04-12T20:18:43.220Z,17.10
2024-04-12T20:21:11.998Z,16.90
2024-04-12T20:23:41.938Z,16.90
2024-04-12T20:26:14.304Z,16.90
2024-04-12T20:28:50.257Z,16.90
2024-04-12T20:31:24.946Z,16.90
2024-04-12T20:34:10.796Z,16.90
2024-04-12T20:36:39.838Z,16.70
2024-04-12T20:39:13.594Z,16.70
2024-04-12T20:41:42.738Z,16.70
2024-04-12T20:44:19.049Z,16.70
2024-04-12T20:46:47.507Z,16.70
2024-04-12T20:49:17.972Z,16.80
2024-04-12T20:51:47.047Z,16.70
2024-04-12T20:54:18.195Z,16.60
2024-04-12T20:56:46.370Z,16.60
2024-04-12T20:59:21.158Z,16.60
2024-04-12T21:01:51.080Z,16.50
2024-04-12T21:04:22.330Z,16.50
2024-04-12T21:06:54.389Z,16.40
2024-04-12T21:09:25.006Z,16.40
2024-04-12T21:11:53.526Z,16.30
2024-04-12T21:14:26.490Z,16.30
2024-04-12T21:16:53.866Z,16.30
2024-04-12T21:19:23.767Z,16.30
2024-04-12T21:21:51.074Z,16.20
2024-04-12T21:24:20.942Z,16.20
2024-04-12T21:26:48.543Z,16.20
2024-04-12T21:29:18.591Z,16.20
2024-04-12T21:31:48.693Z,16.20
2024-04-12T21:34:18.536Z,16.10
2024-04-12T21:36:45.816Z,16.10
2024-04-12T21:39:15.818Z,16.10
2024-04-12T21:41:43.264Z,16.10
2024-04-12T21:44:13.381Z,16.10
2024-04-12T21:46:40.730Z,16.00
2024-04-12T21:49:13.212Z,15.80
2024-04-12T21:51:40.547Z,15.90
2024-04-12T21:54:10.435Z,15.70
2024-04-12T21:56:37.726Z,15.70
2024-04-12T21:59:07.580Z,15.80
2024-04-12T22:01:34.825Z,15.80
2024-04-12T22:04:05.310Z,15.80
2024-04-12T22:06:35.524Z,15.80
2024-04-12T22:09:08.951Z,15.80
2024-04-12T22:11:36.181Z,15.60
2024-04-12T22:14:07.245Z,15.50
2024-04-12T22:16:34.521Z,15.60
2024-04-12T22:19:05.110Z,15.60
2024-04-12T22:21:35.042Z,15.50
2024-04-12T22:24:05.050Z,15.50
2024-04-12T22:26:32.312Z,15.60
2024-04-12T22:29:02.321Z,15.50
2024-04-12T22:31:29.810Z,15.40
2024-04-12T22:34:00.195Z,15.30
2024-04-12T22:36:27.810Z,15.30
2024-04-12T22:39:00.355Z,15.30
2024-04-12T22:41:27.543Z,15.30
2024-04-12T22:43:59.151Z,15.20
2024-04-12T22:46:26.439Z,15.10
2024-04-12T22:48:59.124Z,15.20
2024-04-12T22:51:27.460Z,15.20
2024-04-12T22:54:03.699Z,15.10
2024-04-12T22:56:30.994Z,15.10
2024-04-12T22:59:01.008Z,15.10
2024-04-12T23:01:28.863Z,15.00
2024-04-12T23:03:59.207Z,15.00
2024-04-12T23:06:26.761Z,15.00
2024-04-12T23:08:56.848Z,15.00
2024-04-12T23:11:26.860Z,15.00
2024-04-12T23:13:56.737Z,14.90
2024-04-12T23:16:24.078Z,14.90
2024-04-12T23:18:55.575Z,14.90
2024-04-12T23:21:22.973Z,14.90
2024-04-12T23:23:52.909Z,14.90
2024-04-12T23:26:20.186Z,14.90
2024-04-12T23:28:52.650Z,14.80
2024-04-12T23:31:19.933Z,14.80
2024-04-12T23:33:50.142Z,14.70
2024-04-12T23:36:17.428Z,14.70
2024-04-12T23:38:47.350Z,14.70
2024-04-12T23:41:14.629Z,14.70
2024-04-12T23:43:44.495Z,14.70
2024-04-12T23:46:16.868Z,14.60
2024-04-12T23:48:47.469Z,14.60
2024-04-12T23:51:14.740Z,14.50
2024-04-12T23:53:44.553Z,14.50
2024-04-12T23:56:11.835Z,14.50
2024-04-12T23:58:41.690Z,14.50
